Time;durP1;ratioP1;P1;durP2;ratioP2;P2;SDS_P1;SDS_P2;PMS_P1;PMS_P2;Temp;Humidity;BMP_temperature;BMP_pressure;BME280_temperature;BME280_humidity;BME280_pressure;Samples;Min_cycle;Max_cycle;Signal;HPM_P1;HPM_P2
2020/12/26 00:02:21;;;;;;;7.73;7.00;;;;;;;;;;5006511;28;20283;-49
2020/12/26 00:04:46;;;;;;;7.75;7.05;;;;;;;;;;5002887;28;20170;-49
2020/12/26 00:07:12;;;;;;;6.57;5.93;;;;;;;;;;4998887;28;20180;-48
2020/12/26 00:09:37;;;;;;;7.30;6.70;;;;;;;;;;4996034;28;20200;-48
2020/12/26 00:12:02;;;;;;;6.20;5.70;;;;;;;;;;5000261;28;20254;-48
2020/12/26 00:14:27;;;;;;;8.05;6.45;;;;;;;;;;5007892;28;20271;-49
2020/12/26 00:16:56;;;;;;;8.03;6.23;;;;;;;;;;4993717;28;20188;-48
2020/12/26 00:19:21;;;;;;;5.30;4.80;;;;;;;;;;4992511;28;20639;-49
2020/12/26 00:21:47;;;;;;;5.90;5.40;;;;;;;;;;5006449;28;20593;-49
2020/12/26 00:24:12;;;;;;;7.90;6.37;;;;;;;;;;5005149;28;20200;-49
2020/12/26 00:26:37;;;;;;;6.40;5.20;;;;;;;;;;4992048;28;20784;-49
2020/12/26 00:29:02;;;;;;;7.03;6.33;;;;;;;;;;4989184;28;20210;-49
2020/12/26 00:31:28;;;;;;;8.65;5.72;;;;;;;;;;4991524;28;20168;-49
2020/12/26 00:33:53;;;;;;;8.00;5.68;;;;;;;;;;4999039;28;20186;-48
2020/12/26 00:36:18;;;;;;;6.82;6.15;;;;;;;;;;5003828;28;20231;-49
2020/12/26 00:38:43;;;;;;;10.30;5.50;;;;;;;;;;4995032;28;20648;-48
2020/12/26 00:41:12;;;;;;;5.65;5.05;;;;;;;;;;4990579;28;20283;-48
2020/12/26 00:43:37;;;;;;;6.30;4.90;;;;;;;;;;5003046;28;20192;-49
2020/12/26 00:46:02;;;;;;;7.25;5.70;;;;;;;;;;5005232;28;20604;-49
2020/12/26 00:48:27;;;;;;;8.25;5.72;;;;;;;;;;4987795;28;20536;-48
2020/12/26 00:50:52;;;;;;;5.60;5.05;;;;;;;;;;5002540;28;20183;-49
2020/12/26 00:53:17;;;;;;;7.72;5.50;;;;;;;;;;5003549;28;20171;-49
2020/12/26 00:55:43;;;;;;;7.70;6.70;;;;;;;;;;4996728;28;20651;-50
2020/12/26 00:58:08;;;;;;;6.82;6.22;;;;;;;;;;5008068;28;20652;-49
2020/12/26 01:00:33;;;;;;;8.23;6.55;;;;;;;;;;5013545;28;20291;-49
2020/12/26 01:02:58;;;;;;;7.20;5.80;;;;;;;;;;5001909;28;20545;-49
2020/12/26 01:05:23;;;;;;;8.85;6.18;;;;;;;;;;4993722;28;20173;-49
2020/12/26 01:07:48;;;;;;;6.53;5.97;;;;;;;;;;4992336;28;20179;-48
2020/12/26 01:10:13;;;;;;;7.95;6.80;;;;;;;;;;5004946;28;20513;-49
2020/12/26 01:12:40;;;;;;;5.88;5.30;;;;;;;;;;5004346;28;20218;-49
2020/12/26 01:15:05;;;;;;;7.30;5.57;;;;;;;;;;4997432;28;20257;-50
2020/12/26 01:17:30;;;;;;;6.10;5.50;;;;;;;;;;5009024;28;21223;-49
2020/12/26 01:19:56;;;;;;;6.45;5.30;;;;;;;;;;5011653;28;20218;-48
2020/12/26 01:22:21;;;;;;;10.73;6.33;;;;;;;;;;4993815;28;20175;-50
2020/12/26 01:24:46;;;;;;;7.13;6.43;;;;;;;;;;5000828;28;20625;-48
2020/12/26 01:27:11;;;;;;;8.43;5.20;;;;;;;;;;4999562;28;20236;-50
2020/12/26 01:29:36;;;;;;;6.53;5.15;;;;;;;;;;5009712;28;20190;-48
2020/12/26 01:32:02;;;;;;;10.00;6.60;;;;;;;;;;4993778;28;20755;-50
2020/12/26 01:34:27;;;;;;;6.27;5.60;;;;;;;;;;4998843;28;20177;-48
2020/12/26 01:36:52;;;;;;;8.60;5.95;;;;;;;;;;5000878;28;20177;-50
2020/12/26 01:39:18;;;;;;;6.33;5.40;;;;;;;;;;4996658;28;20192;-49
2020/12/26 01:41:47;;;;;;;7.77;5.80;;;;;;;;;;5000222;28;20682;-49
2020/12/26 01:44:12;;;;;;;9.97;5.40;;;;;;;;;;4992929;28;20200;-49
2020/12/26 01:46:37;;;;;;;6.90;5.43;;;;;;;;;;4993703;28;20673;-50
2020/12/26 01:49:02;;;;;;;5.88;4.85;;;;;;;;;;4994745;28;20171;-49
2020/12/26 01:51:31;;;;;;;4.80;4.40;;;;;;;;;;4996053;28;20280;-48
2020/12/26 01:53:57;;;;;;;5.83;4.50;;;;;;;;;;4999532;28;20653;-49
2020/12/26 01:56:22;;;;;;;6.10;4.93;;;;;;;;;;4996903;28;20619;-48
2020/12/26 01:58:47;;;;;;;5.53;5.03;;;;;;;;;;5008506;28;20604;-49
2020/12/26 02:01:12;;;;;;;6.60;5.13;;;;;;;;;;4992621;28;20224;-48
2020/12/26 02:03:40;;;;;;;6.30;4.95;;;;;;;;;;5008253;28;20233;-48
2020/12/26 02:06:05;;;;;;;5.27;4.63;;;;;;;;;;5004966;28;20182;-49
2020/12/26 02:08:30;;;;;;;4.80;4.20;;;;;;;;;;4998270;28;20613;-48
2020/12/26 02:10:55;;;;;;;5.03;4.50;;;;;;;;;;5001069;28;20246;-48
2020/12/26 02:13:20;;;;;;;5.28;4.22;;;;;;;;;;5000144;28;20167;-49
2020/12/26 02:16:00;;;;;;;7.30;4.63;;;;;;;;;;4994660;28;20178;-49
2020/12/26 02:18:25;;;;;;;4.23;3.90;;;;;;;;;;4990472;28;20186;-49
2020/12/26 02:20:50;;;;;;;6.28;4.10;;;;;;;;;;5003815;28;20655;-48
2020/12/26 02:23:15;;;;;;;5.47;4.37;;;;;;;;;;5008882;28;20307;-49
2020/12/26 02:25:41;;;;;;;4.40;4.00;;;;;;;;;;5010547;28;20234;-49
2020/12/26 02:28:06;;;;;;;6.72;4.15;;;;;;;;;;4997261;28;20325;-49
2020/12/26 02:30:31;;;;;;;5.15;4.00;;;;;;;;;;5002353;28;20186;-49
2020/12/26 02:32:56;;;;;;;4.80;3.50;;;;;;;;;;4993683;28;20181;-49
2020/12/26 02:35:21;;;;;;;9.18;4.65;;;;;;;;;;4998133;28;20192;-47
2020/12/26 02:37:46;;;;;;;6.78;3.75;;;;;;;;;;4992124;28;20644;-49
2020/12/26 02:40:11;;;;;;;3.92;3.60;;;;;;;;;;5007828;28;20202;-48
2020/12/26 02:42:37;;;;;;;3.95;3.65;;;;;;;;;;5003769;28;20203;-49
2020/12/26 02:45:02;;;;;;;3.50;3.20;;;;;;;;;;5001077;28;20729;-49
2020/12/26 02:47:27;;;;;;;2.90;2.60;;;;;;;;;;4991546;28;20170;-48
2020/12/26 02:49:52;;;;;;;3.25;2.83;;;;;;;;;;4998050;28;20175;-49
2020/12/26 02:52:17;;;;;;;4.65;3.33;;;;;;;;;;5008861;28;20180;-48
2020/12/26 02:54:42;;;;;;;5.57;2.97;;;;;;;;;;5005016;28;20226;-48
2020/12/26 02:57:08;;;;;;;5.67;2.97;;;;;;;;;;5003756;28;20207;-49
2020/12/26 02:59:33;;;;;;;2.67;2.40;;;;;;;;;;4992232;28;20186;-49
2020/12/26 03:01:58;;;;;;;4.90;3.10;;;;;;;;;;5006268;28;20179;-49
2020/12/26 03:04:23;;;;;;;2.85;2.65;;;;;;;;;;5005876;28;20179;-48
2020/12/26 03:06:48;;;;;;;6.00;3.10;;;;;;;;;;4995110;28;20262;-48
2020/12/26 03:09:13;;;;;;;2.58;2.38;;;;;;;;;;5003641;28;20229;-49
2020/12/26 03:11:38;;;;;;;3.95;3.47;;;;;;;;;;5002099;28;20213;-49
2020/12/26 03:14:04;;;;;;;3.63;3.30;;;;;;;;;;5006922;28;20183;-49
2020/12/26 03:16:29;;;;;;;5.00;3.85;;;;;;;;;;4999027;28;20173;-49
2020/12/26 03:18:54;;;;;;;3.50;2.50;;;;;;;;;;4997961;28;20202;-49
2020/12/26 03:21:19;;;;;;;3.92;3.63;;;;;;;;;;4990645;28;20211;-49
2020/12/26 03:23:45;;;;;;;3.13;2.92;;;;;;;;;;4990704;28;20207;-48
2020/12/26 03:26:10;;;;;;;3.90;3.20;;;;;;;;;;5002040;28;20252;-49
2020/12/26 03:28:35;;;;;;;3.35;2.95;;;;;;;;;;5000577;28;20177;-50
2020/12/26 03:31:00;;;;;;;2.80;2.60;;;;;;;;;;4995847;28;20180;-49
2020/12/26 03:33:25;;;;;;;3.40;3.10;;;;;;;;;;5004607;28;20182;-50
2020/12/26 03:35:50;;;;;;;3.67;3.20;;;;;;;;;;5007285;28;20183;-51
2020/12/26 03:38:16;;;;;;;7.17;3.13;;;;;;;;;;5005420;28;20198;-50
2020/12/26 03:40:41;;;;;;;4.90;3.28;;;;;;;;;;4999708;28;20253;-50
2020/12/26 03:43:06;;;;;;;3.20;3.00;;;;;;;;;;4990780;28;20233;-50
2020/12/26 03:45:31;;;;;;;4.40;3.53;;;;;;;;;;4991636;28;20266;-50
2020/12/26 03:47:56;;;;;;;3.65;3.45;;;;;;;;;;4999582;28;20171;-50
2020/12/26 03:50:21;;;;;;;5.63;4.23;;;;;;;;;;4998806;28;20260;-50
2020/12/26 03:52:47;;;;;;;4.05;3.65;;;;;;;;;;4997688;28;20210;-50
2020/12/26 03:55:12;;;;;;;3.60;3.27;;;;;;;;;;5006228;28;20181;-49
2020/12/26 03:57:37;;;;;;;5.15;4.13;;;;;;;;;;4991977;28;20188;-51
2020/12/26 04:00:04;;;;;;;4.03;3.75;;;;;;;;;;4990249;28;20221;-51
2020/12/26 04:02:29;;;;;;;5.97;5.07;;;;;;;;;;4999467;28;20177;-51
2020/12/26 04:04:54;;;;;;;4.07;3.78;;;;;;;;;;4994286;28;20604;-51
2020/12/26 04:07:20;;;;;;;4.45;4.10;;;;;;;;;;4996650;28;20176;-50
2020/12/26 04:09:45;;;;;;;5.30;4.03;;;;;;;;;;4999670;28;20206;-49
2020/12/26 04:12:10;;;;;;;4.57;3.60;;;;;;;;;;5012313;28;20507;-51
2020/12/26 04:14:35;;;;;;;4.90;4.43;;;;;;;;;;5005367;28;20221;-54
2020/12/26 04:17:00;;;;;;;3.80;3.40;;;;;;;;;;5009074;28;20194;-50
2020/12/26 04:19:26;;;;;;;4.35;3.95;;;;;;;;;;5000730;28;20666;-50
2020/12/26 04:21:51;;;;;;;3.57;2.90;;;;;;;;;;5003784;28;20264;-49
2020/12/26 04:24:16;;;;;;;5.13;3.10;;;;;;;;;;4993875;28;20198;-50
2020/12/26 04:26:41;;;;;;;4.93;3.30;;;;;;;;;;5001766;28;20285;-50
2020/12/26 04:29:07;;;;;;;5.00;3.40;;;;;;;;;;5005278;28;20181;-50
2020/12/26 04:31:32;;;;;;;5.57;3.20;;;;;;;;;;5011017;28;20257;-50
2020/12/26 04:33:57;;;;;;;5.40;3.23;;;;;;;;;;5003473;28;20179;-50
2020/12/26 04:36:22;;;;;;;5.00;3.07;;;;;;;;;;4994386;28;20228;-49
2020/12/26 04:38:47;;;;;;;3.10;2.90;;;;;;;;;;5009594;28;20613;-50
2020/12/26 04:41:14;;;;;;;2.87;2.67;;;;;;;;;;5007608;28;20603;-49
2020/12/26 04:43:39;;;;;;;2.83;2.63;;;;;;;;;;5007123;28;20558;-50
2020/12/26 04:46:11;;;;;;;3.33;3.00;;;;;;;;;;4996559;28;20953;-50
2020/12/26 04:48:40;;;;;;;3.97;3.20;;;;;;;;;;5011095;28;20167;-50
2020/12/26 04:51:07;;;;;;;4.83;2.40;;;;;;;;;;5001230;28;20683;-50
2020/12/26 04:53:33;;;;;;;4.33;2.50;;;;;;;;;;5012020;28;20608;-50
2020/12/26 04:56:00;;;;;;;2.07;1.87;;;;;;;;;;5010552;28;20962;-50
2020/12/26 04:58:27;;;;;;;4.80;1.90;;;;;;;;;;5005683;28;20610;-50
2020/12/26 05:00:52;;;;;;;2.53;2.33;;;;;;;;;;4995598;28;21028;-50
2020/12/26 05:03:18;;;;;;;3.60;2.53;;;;;;;;;;5003850;28;20958;-49
2020/12/26 05:05:44;;;;;;;3.20;2.40;;;;;;;;;;5000688;28;20649;-50
2020/12/26 05:08:13;;;;;;;2.63;2.40;;;;;;;;;;5012762;28;20598;-49
2020/12/26 05:10:39;;;;;;;2.23;1.80;;;;;;;;;;5004725;28;20190;-50
2020/12/26 05:13:05;;;;;;;2.53;2.10;;;;;;;;;;4998520;28;20614;-49
2020/12/26 05:15:31;;;;;;;2.67;2.20;;;;;;;;;;4996621;28;20175;-50
2020/12/26 05:17:56;;;;;;;2.37;2.10;;;;;;;;;;5014053;28;21003;-50
2020/12/26 05:20:22;;;;;;;3.30;1.75;;;;;;;;;;4996931;28;20208;-51
2020/12/26 05:22:47;;;;;;;5.90;1.73;;;;;;;;;;5003104;28;20257;-50
2020/12/26 05:25:12;;;;;;;2.20;2.08;;;;;;;;;;5005562;28;21144;-50
2020/12/26 05:27:37;;;;;;;3.00;2.00;;;;;;;;;;5004712;28;20223;-50
2020/12/26 05:30:04;;;;;;;2.50;2.20;;;;;;;;;;4996381;28;20592;-50
2020/12/26 05:32:29;;;;;;;3.57;2.00;;;;;;;;;;4999930;28;20189;-50
2020/12/26 05:35:01;;;;;;;2.53;2.37;;;;;;;;;;5003250;28;20606;-50
2020/12/26 05:37:29;;;;;;;2.57;2.33;;;;;;;;;;4998757;28;20600;-49
2020/12/26 05:39:57;;;;;;;2.30;1.97;;;;;;;;;;5002843;28;21078;-50
2020/12/26 05:42:22;;;;;;;1.90;1.80;;;;;;;;;;5010543;28;20599;-50
2020/12/26 05:44:48;;;;;;;5.13;2.40;;;;;;;;;;5007984;28;20613;-50
2020/12/26 05:47:13;;;;;;;2.15;2.05;;;;;;;;;;5004902;28;20184;-49
2020/12/26 05:49:39;;;;;;;2.80;2.05;;;;;;;;;;5009515;28;20175;-50
2020/12/26 05:52:06;;;;;;;2.67;2.47;;;;;;;;;;5006436;28;20291;-50
2020/12/26 05:54:31;;;;;;;3.83;2.73;;;;;;;;;;4998532;28;21145;-50
2020/12/26 05:57:03;;;;;;;3.80;2.40;;;;;;;;;;5002499;28;20730;-50
2020/12/26 05:59:28;;;;;;;2.70;2.50;;;;;;;;;;5004194;28;20177;-50
2020/12/26 06:01:55;;;;;;;4.15;3.22;;;;;;;;;;4992838;28;20605;-51
2020/12/26 06:04:20;;;;;;;3.13;2.93;;;;;;;;;;4993975;28;20180;-50
2020/12/26 06:06:50;;;;;;;5.17;3.60;;;;;;;;;;4993543;28;20610;-50
2020/12/26 06:09:15;;;;;;;4.10;2.90;;;;;;;;;;5010102;28;20660;-50
2020/12/26 06:11:41;;;;;;;3.57;3.30;;;;;;;;;;4996788;28;20608;-50
2020/12/26 06:14:07;;;;;;;3.27;3.07;;;;;;;;;;4998093;28;20206;-51
2020/12/26 06:16:33;;;;;;;3.53;3.33;;;;;;;;;;4992381;28;20170;-50
2020/12/26 06:18:59;;;;;;;5.57;3.77;;;;;;;;;;5001489;28;20629;-49
2020/12/26 06:21:25;;;;;;;4.93;3.40;;;;;;;;;;4998097;28;20709;-49
2020/12/26 06:23:50;;;;;;;6.47;3.40;;;;;;;;;;5004324;28;20192;-49
2020/12/26 06:26:16;;;;;;;6.97;3.90;;;;;;;;;;4994850;28;20174;-48
2020/12/26 06:28:41;;;;;;;3.53;3.23;;;;;;;;;;4995604;28;20181;-47
2020/12/26 06:31:07;;;;;;;4.50;4.10;;;;;;;;;;5008439;28;20646;-48
2020/12/26 06:33:39;;;;;;;6.00;4.10;;;;;;;;;;4990828;28;20183;-50
2020/12/26 06:36:05;;;;;;;4.43;4.07;;;;;;;;;;5002594;28;20186;-49
2020/12/26 06:38:30;;;;;;;3.97;3.67;;;;;;;;;;4999960;28;20700;-50
2020/12/26 06:41:00;;;;;;;3.87;3.40;;;;;;;;;;4994660;28;20677;-50
2020/12/26 06:43:43;;;;;;;4.37;3.93;;;;;;;;;;4993471;28;20209;-51
2020/12/26 06:46:09;;;;;;;4.63;4.23;;;;;;;;;;4996934;28;20604;-48
2020/12/26 06:48:37;;;;;;;4.17;3.87;;;;;;;;;;5015041;28;20659;-49
2020/12/26 06:51:21;;;;;;;4.63;4.23;;;;;;;;;;5005578;28;20188;-49
2020/12/26 06:53:46;;;;;;;4.47;4.07;;;;;;;;;;4996012;28;20640;-49
2020/12/26 06:56:31;;;;;;;4.90;4.40;;;;;;;;;;4992732;28;20781;-49
2020/12/26 06:58:56;;;;;;;4.77;4.37;;;;;;;;;;5000957;28;20190;-50
2020/12/26 07:01:22;;;;;;;4.27;3.83;;;;;;;;;;5008777;28;20643;-49
2020/12/26 07:03:47;;;;;;;4.27;4.07;;;;;;;;;;4992366;28;20221;-49
2020/12/26 07:06:32;;;;;;;4.85;4.38;;;;;;;;;;5007662;28;20207;-49
2020/12/26 07:08:57;;;;;;;5.10;4.33;;;;;;;;;;5011900;28;20358;-49
2020/12/26 07:11:25;;;;;;;7.10;4.90;;;;;;;;;;5013329;28;20707;-49
2020/12/26 07:13:52;;;;;;;4.93;4.40;;;;;;;;;;5008279;28;20533;-48
2020/12/26 07:16:33;;;;;;;5.50;5.00;;;;;;;;;;4994363;28;20637;-49
2020/12/26 07:19:18;;;;;;;5.30;4.20;;;;;;;;;;4992783;28;20609;-50
2020/12/26 07:21:44;;;;;;;4.70;4.27;;;;;;;;;;5000237;28;20694;-49
2020/12/26 07:24:14;;;;;;;6.40;5.00;;;;;;;;;;5004361;28;20652;-49
2020/12/26 07:26:40;;;;;;;5.03;4.53;;;;;;;;;;5003487;28;20205;-49
2020/12/26 07:29:05;;;;;;;5.97;4.90;;;;;;;;;;4987370;28;20632;-49
2020/12/26 07:31:45;;;;;;;6.63;4.70;;;;;;;;;;4996362;28;20673;-49
2020/12/26 07:34:30;;;;;;;7.47;5.47;;;;;;;;;;4984818;28;20186;-49
2020/12/26 07:36:56;;;;;;;4.73;4.40;;;;;;;;;;4989052;28;20651;-49
2020/12/26 07:39:21;;;;;;;5.03;4.63;;;;;;;;;;4996203;28;21158;-48
2020/12/26 07:41:46;;;;;;;5.93;5.43;;;;;;;;;;4998473;28;20209;-49
2020/12/26 07:44:14;;;;;;;5.50;4.67;;;;;;;;;;4984281;28;20182;-49
2020/12/26 07:46:39;;;;;;;5.90;4.90;;;;;;;;;;5002304;28;20169;-48
2020/12/26 07:49:04;;;;;;;5.85;5.30;;;;;;;;;;4988642;28;21202;-48
2020/12/26 07:51:29;;;;;;;7.68;5.20;;;;;;;;;;4988861;28;20179;-50
2020/12/26 07:53:58;;;;;;;6.77;4.70;;;;;;;;;;4994927;28;20178;-49
2020/12/26 07:56:26;;;;;;;6.43;5.80;;;;;;;;;;5000306;28;20185;-50
2020/12/26 07:58:54;;;;;;;5.70;5.00;;;;;;;;;;4995884;28;20591;-49
2020/12/26 08:01:23;;;;;;;6.43;5.20;;;;;;;;;;4997875;28;20751;-49
2020/12/26 08:03:57;;;;;;;12.00;5.57;;;;;;;;;;4989749;28;20632;-48
2020/12/26 08:06:23;;;;;;;6.83;5.73;;;;;;;;;;4996546;28;20604;-49
2020/12/26 08:08:49;;;;;;;6.13;5.47;;;;;;;;;;5006566;28;20604;-49
2020/12/26 08:11:21;;;;;;;6.93;5.60;;;;;;;;;;4995191;28;20659;-49
2020/12/26 08:13:57;;;;;;;6.60;6.00;;;;;;;;;;5007328;28;20650;-49
2020/12/26 08:16:22;;;;;;;5.23;4.43;;;;;;;;;;4998849;28;21508;-49
2020/12/26 08:18:47;;;;;;;5.20;4.80;;;;;;;;;;4994252;28;20647;-49
2020/12/26 08:21:16;;;;;;;8.07;4.60;;;;;;;;;;4993175;28;20576;-49
2020/12/26 08:23:41;;;;;;;5.50;5.00;;;;;;;;;;4995316;28;20193;-49
2020/12/26 08:26:06;;;;;;;5.50;5.00;;;;;;;;;;5000851;28;21031;-49
2020/12/26 08:28:35;;;;;;;5.70;5.20;;;;;;;;;;4993804;28;20266;-49
2020/12/26 08:31:02;;;;;;;4.50;4.10;;;;;;;;;;4995550;28;20193;-49
2020/12/26 08:33:29;;;;;;;4.37;4.00;;;;;;;;;;4997528;28;20664;-50
2020/12/26 08:35:54;;;;;;;5.43;4.43;;;;;;;;;;4991010;28;20601;-49
2020/12/26 08:38:26;;;;;;;5.50;4.63;;;;;;;;;;5003564;28;20600;-49
2020/12/26 08:40:55;;;;;;;6.30;5.20;;;;;;;;;;5008327;28;20225;-48
2020/12/26 08:43:24;;;;;;;4.90;4.50;;;;;;;;;;4992000;28;20601;-50
2020/12/26 08:45:49;;;;;;;5.00;4.30;;;;;;;;;;4994253;28;20645;-50
2020/12/26 08:48:15;;;;;;;5.50;5.00;;;;;;;;;;4997844;28;20639;-49
2020/12/26 08:50:40;;;;;;;5.53;5.00;;;;;;;;;;5001899;28;20234;-49
2020/12/26 08:53:07;;;;;;;6.93;4.87;;;;;;;;;;4989101;28;20697;-50
2020/12/26 08:55:43;;;;;;;6.13;4.80;;;;;;;;;;5006215;28;20181;-49
2020/12/26 08:58:08;;;;;;;6.57;4.80;;;;;;;;;;4997845;28;20598;-48
2020/12/26 09:00:34;;;;;;;6.10;5.50;;;;;;;;;;5012458;28;21306;-48
2020/12/26 09:02:59;;;;;;;4.77;4.37;;;;;;;;;;5018695;28;20165;-48
2020/12/26 09:05:26;;;;;;;5.00;4.50;;;;;;;;;;5007330;28;20589;-47
2020/12/26 09:08:07;;;;;;;4.50;4.10;;;;;;;;;;5005459;28;20183;-49
2020/12/26 09:10:33;;;;;;;4.43;4.03;;;;;;;;;;4994778;28;20603;-48
2020/12/26 09:12:59;;;;;;;7.07;4.50;;;;;;;;;;5002530;28;20601;-48
2020/12/26 09:15:24;;;;;;;4.27;3.87;;;;;;;;;;4997583;28;20605;-48
2020/12/26 09:17:50;;;;;;;4.90;4.38;;;;;;;;;;5011494;28;20598;-48
2020/12/26 09:20:15;;;;;;;4.80;4.32;;;;;;;;;;5007591;28;20211;-49
2020/12/26 09:22:40;;;;;;;4.47;4.13;;;;;;;;;;4995600;28;20629;-48
2020/12/26 09:25:22;;;;;;;4.65;3.40;;;;;;;;;;5001136;28;20202;-48
2020/12/26 09:28:00;;;;;;;3.97;3.60;;;;;;;;;;5014296;28;20212;-49
2020/12/26 09:30:25;;;;;;;3.40;3.10;;;;;;;;;;5010134;28;20636;-48
2020/12/26 09:32:54;;;;;;;3.80;3.50;;;;;;;;;;5010766;28;20636;-48
2020/12/26 09:35:19;;;;;;;3.63;3.33;;;;;;;;;;5002815;28;20701;-48
2020/12/26 09:37:53;;;;;;;4.05;3.75;;;;;;;;;;5001582;28;21167;-49
2020/12/26 09:40:18;;;;;;;4.57;4.17;;;;;;;;;;5000044;28;20194;-49
2020/12/26 09:42:44;;;;;;;3.70;3.50;;;;;;;;;;5005863;28;21033;-49
2020/12/26 09:45:09;;;;;;;5.53;3.27;;;;;;;;;;4996231;28;20172;-49
2020/12/26 09:47:34;;;;;;;5.97;3.60;;;;;;;;;;4994552;28;20735;-48
2020/12/26 09:50:00;;;;;;;4.35;3.60;;;;;;;;;;5001003;28;20589;-48
2020/12/26 09:52:25;;;;;;;4.17;3.77;;;;;;;;;;5007668;28;20798;-48
2020/12/26 09:54:50;;;;;;;3.30;3.03;;;;;;;;;;4997204;28;20216;-49
2020/12/26 09:57:15;;;;;;;3.97;3.67;;;;;;;;;;5009756;28;20176;-49
2020/12/26 09:59:40;;;;;;;3.73;3.43;;;;;;;;;;5000359;28;20209;-49
2020/12/26 10:02:06;;;;;;;3.83;3.50;;;;;;;;;;5007102;28;20279;-48
2020/12/26 10:04:31;;;;;;;3.50;3.30;;;;;;;;;;4996268;28;20215;-49
2020/12/26 10:06:56;;;;;;;3.60;3.40;;;;;;;;;;4996218;28;20643;-48
2020/12/26 10:09:21;;;;;;;3.55;3.25;;;;;;;;;;5004112;28;20177;-49
2020/12/26 10:11:46;;;;;;;3.60;3.30;;;;;;;;;;4992601;28;20632;-49
2020/12/26 10:14:11;;;;;;;3.45;3.15;;;;;;;;;;4993379;28;20185;-50
2020/12/26 10:16:36;;;;;;;4.03;3.55;;;;;;;;;;5005066;28;20186;-49
2020/12/26 10:19:04;;;;;;;4.00;3.70;;;;;;;;;;4993367;28;21017;-50
2020/12/26 10:21:29;;;;;;;4.03;3.40;;;;;;;;;;5002034;28;20291;-50
2020/12/26 10:23:55;;;;;;;4.45;3.97;;;;;;;;;;4991089;28;21299;-50
2020/12/26 10:26:20;;;;;;;3.43;3.07;;;;;;;;;;5007149;28;20256;-50
2020/12/26 10:28:45;;;;;;;6.53;3.83;;;;;;;;;;5010956;28;20217;-50
2020/12/26 10:31:11;;;;;;;3.55;3.25;;;;;;;;;;4999397;28;20268;-48
2020/12/26 10:33:36;;;;;;;6.63;3.60;;;;;;;;;;4993171;28;20188;-50
2020/12/26 10:36:01;;;;;;;4.10;3.70;;;;;;;;;;5014881;28;20188;-49
2020/12/26 10:38:26;;;;;;;3.80;3.50;;;;;;;;;;5011095;28;20560;-49
2020/12/26 10:40:51;;;;;;;3.92;3.63;;;;;;;;;;5010248;28;20239;-49
2020/12/26 10:43:17;;;;;;;3.77;3.47;;;;;;;;;;5015545;28;20248;-49
2020/12/26 10:45:43;;;;;;;4.13;3.83;;;;;;;;;;5009885;28;20177;-50
2020/12/26 10:48:08;;;;;;;4.13;3.70;;;;;;;;;;5017789;28;20173;-49
2020/12/26 10:50:33;;;;;;;4.47;4.17;;;;;;;;;;5017114;28;20315;-49
2020/12/26 10:52:58;;;;;;;3.60;3.30;;;;;;;;;;5023422;28;20215;-49
2020/12/26 10:55:24;;;;;;;3.90;3.50;;;;;;;;;;5011756;28;20456;-49
2020/12/26 10:57:51;;;;;;;4.13;3.53;;;;;;;;;;5017175;28;20179;-49
2020/12/26 11:00:16;;;;;;;5.27;3.70;;;;;;;;;;5007715;28;20643;-49
2020/12/26 11:02:42;;;;;;;3.95;3.65;;;;;;;;;;5000539;28;20590;-49
2020/12/26 11:05:07;;;;;;;4.60;4.20;;;;;;;;;;4991797;28;20258;-49
2020/12/26 11:07:35;;;;;;;5.03;3.80;;;;;;;;;;5002892;28;20181;-49
2020/12/26 11:10:00;;;;;;;4.00;3.60;;;;;;;;;;5000187;28;20187;-50
2020/12/26 11:12:25;;;;;;;3.97;3.43;;;;;;;;;;5019509;28;20584;-49
2020/12/26 11:14:50;;;;;;;5.22;3.75;;;;;;;;;;5026714;28;20179;-49
2020/12/26 11:17:15;;;;;;;6.63;3.97;;;;;;;;;;4997693;28;20182;-49
2020/12/26 11:19:40;;;;;;;6.43;3.67;;;;;;;;;;5004858;28;20184;-50
2020/12/26 11:22:06;;;;;;;4.28;3.88;;;;;;;;;;5001201;28;20216;-49
2020/12/26 11:24:31;;;;;;;4.93;3.92;;;;;;;;;;4998709;28;20533;-50
2020/12/26 11:26:56;;;;;;;5.40;3.97;;;;;;;;;;5008341;28;20221;-49
2020/12/26 11:29:21;;;;;;;3.87;3.57;;;;;;;;;;4995918;28;20254;-49
2020/12/26 11:31:46;;;;;;;5.03;4.40;;;;;;;;;;5001114;28;20201;-49
2020/12/26 11:34:11;;;;;;;3.90;3.60;;;;;;;;;;5005267;28;20536;-48
2020/12/26 11:36:37;;;;;;;3.77;3.43;;;;;;;;;;5008912;28;20181;-48
2020/12/26 11:39:02;;;;;;;4.60;3.83;;;;;;;;;;5007021;28;20189;-49
2020/12/26 11:41:28;;;;;;;5.25;3.78;;;;;;;;;;5013397;28;20207;-49
2020/12/26 11:43:54;;;;;;;7.00;4.10;;;;;;;;;;5014663;28;20188;-50
2020/12/26 11:46:19;;;;;;;4.50;4.10;;;;;;;;;;4995508;28;20643;-49
2020/12/26 11:48:45;;;;;;;6.53;4.73;;;;;;;;;;5006104;28;21205;-49
2020/12/26 11:51:10;;;;;;;3.80;3.50;;;;;;;;;;4990661;28;20269;-50
2020/12/26 11:53:35;;;;;;;4.00;3.70;;;;;;;;;;4996138;28;20185;-50
2020/12/26 11:56:06;;;;;;;5.27;4.07;;;;;;;;;;4999340;28;20240;-49
2020/12/26 11:58:31;;;;;;;5.80;3.63;;;;;;;;;;4995877;28;20181;-49
2020/12/26 12:00:56;;;;;;;3.90;3.60;;;;;;;;;;5007239;28;20699;-49
2020/12/26 12:03:21;;;;;;;4.37;4.03;;;;;;;;;;5005145;28;20604;-50
2020/12/26 12:05:47;;;;;;;5.13;3.40;;;;;;;;;;5004070;28;20424;-50
2020/12/26 12:08:12;;;;;;;4.03;3.63;;;;;;;;;;4998157;28;20651;-49
2020/12/26 12:10:38;;;;;;;4.30;3.57;;;;;;;;;;4990415;28;20590;-49
2020/12/26 12:13:04;;;;;;;4.73;3.63;;;;;;;;;;5006571;28;20185;-50
2020/12/26 12:15:29;;;;;;;5.67;3.87;;;;;;;;;;5001683;28;20738;-49
2020/12/26 12:17:54;;;;;;;3.45;3.15;;;;;;;;;;5000382;28;20282;-49
2020/12/26 12:20:19;;;;;;;4.50;3.77;;;;;;;;;;5002714;28;20678;-50
2020/12/26 12:22:44;;;;;;;4.30;4.00;;;;;;;;;;4993103;28;20182;-49
2020/12/26 12:25:10;;;;;;;3.80;3.38;;;;;;;;;;5005284;28;20280;-49
2020/12/26 12:27:35;;;;;;;6.83;3.57;;;;;;;;;;5002248;28;20218;-50
2020/12/26 12:30:00;;;;;;;3.70;3.40;;;;;;;;;;4991906;28;20264;-48
2020/12/26 12:32:25;;;;;;;5.20;3.20;;;;;;;;;;5009027;28;20181;-49
2020/12/26 12:34:50;;;;;;;3.75;3.45;;;;;;;;;;4998715;28;20719;-50
2020/12/26 12:37:16;;;;;;;4.28;3.88;;;;;;;;;;4996769;28;20182;-49
2020/12/26 12:39:41;;;;;;;3.30;3.00;;;;;;;;;;5001994;28;20183;-49
2020/12/26 12:42:07;;;;;;;3.83;3.28;;;;;;;;;;5000332;28;20280;-49
2020/12/26 12:44:33;;;;;;;5.13;3.93;;;;;;;;;;5001305;28;20261;-49
2020/12/26 12:46:58;;;;;;;6.93;3.70;;;;;;;;;;4997836;28;20697;-50
2020/12/26 12:49:23;;;;;;;4.00;3.70;;;;;;;;;;4993291;28;20186;-49
2020/12/26 12:51:48;;;;;;;3.50;3.17;;;;;;;;;;5001585;28;20210;-49
2020/12/26 12:54:16;;;;;;;5.80;3.80;;;;;;;;;;5012548;28;20220;-49
2020/12/26 12:56:41;;;;;;;4.47;4.07;;;;;;;;;;5000938;28;20173;-49
2020/12/26 12:59:06;;;;;;;4.07;3.70;;;;;;;;;;5001623;28;20747;-50
2020/12/26 13:01:31;;;;;;;5.27;3.80;;;;;;;;;;5021475;28;20201;-49
2020/12/26 13:03:56;;;;;;;4.10;3.72;;;;;;;;;;5026383;28;20210;-50
2020/12/26 13:06:22;;;;;;;5.20;4.20;;;;;;;;;;5010347;28;20180;-49
2020/12/26 13:08:47;;;;;;;3.83;3.40;;;;;;;;;;5020045;28;20259;-50
2020/12/26 13:11:12;;;;;;;5.93;3.70;;;;;;;;;;5015536;28;20235;-49
2020/12/26 13:13:38;;;;;;;5.63;4.10;;;;;;;;;;5014119;28;20176;-50
2020/12/26 13:16:03;;;;;;;5.27;3.70;;;;;;;;;;5004980;28;20182;-50
2020/12/26 13:18:28;;;;;;;4.20;3.70;;;;;;;;;;4999865;28;20236;-50
2020/12/26 13:20:53;;;;;;;5.80;3.70;;;;;;;;;;5013323;28;20680;-49
2020/12/26 13:23:19;;;;;;;3.90;3.60;;;;;;;;;;5020433;28;20575;-50
2020/12/26 13:25:44;;;;;;;4.07;3.67;;;;;;;;;;5006995;28;20208;-49
2020/12/26 13:28:09;;;;;;;4.57;4.18;;;;;;;;;;5011219;28;20219;-49
2020/12/26 13:30:34;;;;;;;5.63;4.05;;;;;;;;;;5010018;28;20551;-49
2020/12/26 13:32:59;;;;;;;6.07;4.43;;;;;;;;;;5014570;28;20205;-49
2020/12/26 13:35:24;;;;;;;5.03;4.32;;;;;;;;;;5017198;28;20185;-49
2020/12/26 13:37:50;;;;;;;4.90;4.03;;;;;;;;;;5025229;28;20548;-51
2020/12/26 13:40:15;;;;;;;4.73;3.97;;;;;;;;;;5026901;28;20240;-48
2020/12/26 13:42:40;;;;;;;4.67;4.27;;;;;;;;;;5021302;28;20211;-49
2020/12/26 13:45:08;;;;;;;4.13;3.40;;;;;;;;;;5014018;28;20183;-50
2020/12/26 13:47:33;;;;;;;4.43;4.03;;;;;;;;;;5003733;28;20196;-49
2020/12/26 13:49:59;;;;;;;5.80;4.20;;;;;;;;;;4992575;28;20585;-48
2020/12/26 13:52:24;;;;;;;6.47;4.65;;;;;;;;;;5020580;28;20187;-48
2020/12/26 13:54:49;;;;;;;5.68;4.40;;;;;;;;;;5021795;28;20169;-49
2020/12/26 13:57:14;;;;;;;3.90;3.70;;;;;;;;;;5006334;28;20173;-48
2020/12/26 13:59:39;;;;;;;4.63;4.13;;;;;;;;;;5009212;28;20176;-49
2020/12/26 14:02:04;;;;;;;4.07;3.67;;;;;;;;;;5019493;28;20196;-48
2020/12/26 14:04:30;;;;;;;4.43;3.90;;;;;;;;;;5011384;28;20655;-48
2020/12/26 14:06:55;;;;;;;5.13;4.63;;;;;;;;;;5008106;28;20220;-49
2020/12/26 14:09:20;;;;;;;5.20;4.53;;;;;;;;;;4992899;28;20649;-50
2020/12/26 14:11:46;;;;;;;4.63;4.20;;;;;;;;;;5012103;28;20181;-48
2020/12/26 14:14:11;;;;;;;4.57;4.07;;;;;;;;;;5011021;28;20181;-49
2020/12/26 14:16:36;;;;;;;9.50;4.10;;;;;;;;;;4992814;28;20598;-50
2020/12/26 14:19:03;;;;;;;5.20;4.70;;;;;;;;;;5027607;28;20223;-50
2020/12/26 14:21:32;;;;;;;6.07;4.10;;;;;;;;;;5023042;28;20196;-50
2020/12/26 14:23:57;;;;;;;5.60;5.10;;;;;;;;;;4998693;28;21213;-48
2020/12/26 14:26:22;;;;;;;6.23;4.80;;;;;;;;;;4997648;28;20691;-49
2020/12/26 14:28:48;;;;;;;6.80;4.60;;;;;;;;;;5011298;28;20742;-49
2020/12/26 14:31:13;;;;;;;4.90;4.40;;;;;;;;;;5011398;28;20188;-49
2020/12/26 14:33:38;;;;;;;4.60;4.20;;;;;;;;;;5017512;28;20234;-49
2020/12/26 14:36:03;;;;;;;5.50;4.65;;;;;;;;;;5009273;28;20202;-49
2020/12/26 14:38:28;;;;;;;4.70;4.30;;;;;;;;;;5013109;28;20583;-49